createdAt,value
2019-04-07T00:06:45.336Z,50.20
2019-04-07T00:20:08.792Z,50.20
2019-04-07T00:33:30.994Z,50.10
2019-04-07T00:46:54.050Z,50.10
2019-04-07T01:00:17.446Z,49.90
2019-04-07T01:13:39.413Z,49.90
2019-04-07T01:40:04.443Z,49.70
2019-04-07T01:53:11.075Z,49.60
2019-04-07T02:06:18.875Z,49.90
2019-04-07T02:19:26.244Z,49.80
2019-04-07T02:32:32.952Z,49.70
2019-04-07T02:45:57.888Z,49.70
2019-04-07T02:59:19.950Z,49.60
2019-04-07T03:38:50.919Z,49.50
2019-04-07T03:51:58.225Z,49.50
2019-04-07T04:05:05.562Z,49.40
2019-04-07T04:18:13.793Z,49.40
2019-04-07T04:31:20.177Z,49.40
2019-04-07T04:44:44.307Z,49.40
2019-04-07T04:58:07.278Z,49.40
2019-04-07T05:11:30.364Z,49.40
2019-04-07T05:24:53.010Z,49.50
2019-04-07T05:38:15.886Z,49.50
2019-04-07T05:51:38.230Z,49.40
2019-04-07T06:05:01.221Z,49.50
2019-04-07T18:17:04.737Z,34.00
2019-04-07T18:30:14.438Z,34.10
2019-04-07T18:43:35.829Z,37.10
2019-04-07T18:56:59.196Z,37.40
2019-04-07T19:10:25.121Z,38.10
2019-04-07T19:23:45.188Z,37.60
2019-04-07T19:50:10.174Z,36.10
2019-04-07T20:03:16.139Z,35.20
2019-04-07T20:16:24.094Z,35.00
2019-04-07T20:29:31.668Z,33.70
2019-04-07T20:42:38.836Z,36.40
2019-04-07T20:56:02.106Z,36.90
2019-04-07T21:09:25.595Z,37.30
2019-04-07T21:22:47.736Z,37.20
2019-04-07T21:36:10.536Z,37.00
2019-04-07T21:49:35.625Z,37.10
2019-04-07T22:02:56.997Z,38.00
2019-04-07T22:16:18.941Z,38.50
2019-04-07T22:29:42.728Z,38.50
2019-04-07T22:43:04.537Z,38.40
2019-04-07T22:56:27.942Z,38.40
2019-04-07T23:22:52.066Z,38.50
2019-04-07T23:49:58.665Z,38.50
